Windsor Airport
CYQG : now visible

Airfield :











YOU CAN JOIN US ON...

 
LOGIN :

Register | Disclaimer

   EN    FR    IT 

 









Legend :    VFR   Marginal VFR   IFR   Intensive IFR   Very Intensive IFR
Visi :
Ceiling :
>= 8 km
>= 3000ft
5 to 8 km
1000 to 3000 ft
1500m to 5 km
500 to 1000 ft
800 to 1500m
200 to 500 ft
< 800m
< 200 ft
Symbols :   Thunderstorms  Fog  Heavy snow  Heavy precipitations  Wind > 20 kt






- Airport Elevation : 622 ft
- IATA code : YQG


CYQG - Windsor

CURRENT METAR :
  • 281230Z AUTO 06012G21KT 9SM OVC004 05/05 A2980 RMK SLP097

EXPIRED METARs :
  • 281200Z AUTO 05010G15KT 7SM -RA OVC004 05/05 A2982 RMK PRESRR PCPN 10.8MM PAST HR SLP103
  • 281142Z AUTO 06012KT 2 1/4SM -RA BR BKN004 BKN010 OVC028 05/05 A2980 RMK LTNG DIST NE E PRESFR SLP098
  • 281134Z AUTO 06010KT 2SM TSRA BR BKN004 BKN010 OVC032 05/05 A2982 RMK LTNG DIST NE E W PRESFR SLP105
  • 281116Z AUTO 01015G20KT 1 3/4SM TSRA BR OVC004 05/05 A2983 RMK LTNG DIST ALQDS PRESRR SLP107
  • 281107Z AUTO 04015G20KT 2SM TSRA BR OVC004 05/05 A2980 RMK LTNG DIST ALQDS PRESRR SLP097
  • 281104Z AUTO 04015G20KT 1 3/4SM TSRA BR OVC004 05/04 A2978 RMK LTNG DIST ALQDS SLP092
  • 281057Z AUTO 05012G18KT 2 1/2SM -RA BR OVC004 05/04 A2978 RMK LTNG DIST ALQDS PRESFR SLP091
  • 281046Z AUTO 03012KT 1 1/2SM RA VCTS BR OVC004 05/05 A2979 RMK LTNG DIST ALQDS PRESFR SLP094
  • 281016Z AUTO 08010KT 4SM -TSRA BR OVC006 05/05 A2978 RMK LTNG DIST ALQDS SLP089
  • 281012Z AUTO 08009KT 4SM -RA VCTS BR OVC006 05/05 A2978 RMK LTNG DIST ALQDS SLP089
  • 280953Z AUTO 05008KT 3SM RA VCTS BR BKN008 OVC017 05/05 A2979 RMK LTNG DIST S SW SLP094

TAF TAF CYQG
Valid from the 28 at 12:00 until the 29 at 12:00 UTC


281138Z 2812/2912 04010G20KT 3SM -RA BR OVC006
TEMPO 2812/2813 1SM +TSRA BR OVC003CB
FM281300 05012KT 3SM -RA BR OVC006
TEMPO 2813/2818 11/2SM SHRA BR OVC004
FM281800 08010KT 2SM -DZ BR OVC004
TEMPO 2818/2824 6SM BR OVC006
FM290000 04005KT 1SM -SHRA BR OVC002
PROB30 2900/2903 1/2SM TSRA FG BKN002 OVC030CB
FM290300 13008KT 1/2SM -SHRA -DZ FG VV002
PROB30 2903/2909 1/2SM TSRA FG BKN002 OVC030CB
FM290900 19012KT 1SM -SHRA BR OVC003
BECMG 2910/2912 23012G22KT RMK FCST BASED ON AUTO OBS. NXT FCST BY 281800Z



MET'MAP, your aeronautical weather chart ! - Copyright ORBIFLY December 2007 - Disclaimer

ORBIFLY MET'MAP TEAM :

Programming & Development : Alexandra Zaïnal
Concept & original design : Baudouin d'Aumeries
Assistance for programming : Marc-Olivier Méhu
Technical & hardware support : Manuel Goepfert

Contact : metmap@orbifly.com




SOURCES & CREDITS :

   NOAA       Earth
Advisory